sensor_id;sensor_type;location;lat;lon;timestamp;temperature;humidity
47168;DHT22;32931;47.778;17.806;2023-04-09T00:01:06;7.20;99.90
47168;DHT22;32931;47.778;17.806;2023-04-09T00:03:33;7.20;99.90
47168;DHT22;32931;47.778;17.806;2023-04-09T00:05:59;7.10;99.90
47168;DHT22;32931;47.778;17.806;2023-04-09T00:08:25;7.10;99.90
47168;DHT22;32931;47.778;17.806;2023-04-09T00:10:52;7.10;99.90
47168;DHT22;32931;47.778;17.806;2023-04-09T00:13:19;7.10;99.90
47168;DHT22;32931;47.778;17.806;2023-04-09T00:15:45;7.10;99.90
47168;DHT22;32931;47.778;17.806;2023-04-09T00:18:12;7.10;99.90
47168;DHT22;32931;47.778;17.806;2023-04-09T00:20:38;7.10;99.90
47168;DHT22;32931;47.778;17.806;2023-04-09T00:23:04;7.10;99.90
47168;DHT22;32931;47.778;17.806;2023-04-09T00:25:31;7.10;99.90
47168;DHT22;32931;47.778;17.806;2023-04-09T00:27:57;7.10;99.90
47168;DHT22;32931;47.778;17.806;2023-04-09T00:30:24;7.10;99.90
47168;DHT22;32931;47.778;17.806;2023-04-09T00:32:50;7.10;99.90
47168;DHT22;32931;47.778;17.806;2023-04-09T00:35:16;7.10;99.90
47168;DHT22;32931;47.778;17.806;2023-04-09T00:37:43;7.00;99.90
47168;DHT22;32931;47.778;17.806;2023-04-09T00:40:09;7.10;99.90
47168;DHT22;32931;47.778;17.806;2023-04-09T00:42:36;7.00;99.90
47168;DHT22;32931;47.778;17.806;2023-04-09T00:45:03;7.00;99.90
47168;DHT22;32931;47.778;17.806;2023-04-09T00:47:29;7.00;99.90
47168;DHT22;32931;47.778;17.806;2023-04-09T00:49:56;7.00;99.90
47168;DHT22;32931;47.778;17.806;2023-04-09T00:52:23;6.90;99.90
47168;DHT22;32931;47.778;17.806;2023-04-09T00:54:51;6.90;99.90
47168;DHT22;32931;47.778;17.806;2023-04-09T00:57:18;6.90;99.90
47168;DHT22;32931;47.778;17.806;2023-04-09T00:59:44;6.90;99.90
47168;DHT22;32931;47.778;17.806;2023-04-09T01:02:10;7.00;99.90
47168;DHT22;32931;47.778;17.806;2023-04-09T01:04:39;7.00;99.90
47168;DHT22;32931;47.778;17.806;2023-04-09T01:09:33;6.90;99.90
47168;DHT22;32931;47.778;17.806;2023-04-09T01:14:55;6.90;99.90
47168;DHT22;32931;47.778;17.806;2023-04-09T01:17:40;6.90;99.90
47168;DHT22;32931;47.778;17.806;2023-04-09T01:20:27;6.90;99.90
47168;DHT22;32931;47.778;17.806;2023-04-09T01:28:26;6.90;99.90
47168;DHT22;32931;47.778;17.806;2023-04-09T01:31:02;6.90;99.90
47168;DHT22;32931;47.778;17.806;2023-04-09T01:33:29;6.80;99.90
47168;DHT22;32931;47.778;17.806;2023-04-09T01:35:56;6.80;99.90
47168;DHT22;32931;47.778;17.806;2023-04-09T01:38:24;6.80;99.90
47168;DHT22;32931;47.778;17.806;2023-04-09T01:40:51;6.80;99.90
47168;DHT22;32931;47.778;17.806;2023-04-09T01:43:19;6.80;99.90
47168;DHT22;32931;47.778;17.806;2023-04-09T01:45:46;6.80;99.90
47168;DHT22;32931;47.778;17.806;2023-04-09T01:48:14;6.70;99.90
47168;DHT22;32931;47.778;17.806;2023-04-09T01:50:41;6.70;99.90
47168;DHT22;32931;47.778;17.806;2023-04-09T01:53:07;6.70;99.90
47168;DHT22;32931;47.778;17.806;2023-04-09T01:55:33;6.70;99.90
47168;DHT22;32931;47.778;17.806;2023-04-09T01:57:59;6.70;99.90
47168;DHT22;32931;47.778;17.806;2023-04-09T02:00:31;6.60;99.90
47168;DHT22;32931;47.778;17.806;2023-04-09T02:05:48;6.50;99.90
47168;DHT22;32931;47.778;17.806;2023-04-09T02:08:20;6.60;99.90
47168;DHT22;32931;47.778;17.806;2023-04-09T02:10:50;6.60;99.90
47168;DHT22;32931;47.778;17.806;2023-04-09T02:13:18;6.60;99.90
47168;DHT22;32931;47.778;17.806;2023-04-09T02:15:46;6.60;99.90
47168;DHT22;32931;47.778;17.806;2023-04-09T02:18:29;6.60;99.90
47168;DHT22;32931;47.778;17.806;2023-04-09T02:20:56;6.70;99.90
47168;DHT22;32931;47.778;17.806;2023-04-09T02:23:24;6.70;99.90
47168;DHT22;32931;47.778;17.806;2023-04-09T02:25:50;6.70;99.90
47168;DHT22;32931;47.778;17.806;2023-04-09T02:28:17;6.70;99.90
47168;DHT22;32931;47.778;17.806;2023-04-09T02:30:43;6.70;99.90
47168;DHT22;32931;47.778;17.806;2023-04-09T02:33:10;6.70;99.90
47168;DHT22;32931;47.778;17.806;2023-04-09T02:35:36;6.70;99.90
47168;DHT22;32931;47.778;17.806;2023-04-09T02:38:02;6.70;99.90
47168;DHT22;32931;47.778;17.806;2023-04-09T02:40:28;6.70;99.90
47168;DHT22;32931;47.778;17.806;2023-04-09T02:42:56;6.70;99.90
47168;DHT22;32931;47.778;17.806;2023-04-09T02:45:23;6.70;99.90
47168;DHT22;32931;47.778;17.806;2023-04-09T02:47:49;6.80;99.90
47168;DHT22;32931;47.778;17.806;2023-04-09T02:50:16;6.80;99.90
47168;DHT22;32931;47.778;17.806;2023-04-09T02:52:45;6.80;99.90
47168;DHT22;32931;47.778;17.806;2023-04-09T02:55:12;6.80;99.90
47168;DHT22;32931;47.778;17.806;2023-04-09T02:57:38;6.80;99.90
47168;DHT22;32931;47.778;17.806;2023-04-09T03:00:04;6.90;99.90
47168;DHT22;32931;47.778;17.806;2023-04-09T03:02:31;6.90;99.90
47168;DHT22;32931;47.778;17.806;2023-04-09T03:04:57;6.90;99.90
47168;DHT22;32931;47.778;17.806;2023-04-09T03:07:23;6.90;99.90
47168;DHT22;32931;47.778;17.806;2023-04-09T03:09:49;7.00;99.90
47168;DHT22;32931;47.778;17.806;2023-04-09T03:12:15;7.00;99.90
47168;DHT22;32931;47.778;17.806;2023-04-09T03:14:41;7.00;99.90
47168;DHT22;32931;47.778;17.806;2023-04-09T03:17:07;7.00;99.90
47168;DHT22;32931;47.778;17.806;2023-04-09T03:19:34;7.00;99.90
47168;DHT22;32931;47.778;17.806;2023-04-09T03:22:00;7.00;99.90
47168;DHT22;32931;47.778;17.806;2023-04-09T03:24:26;6.90;99.90
47168;DHT22;32931;47.778;17.806;2023-04-09T03:26:52;6.90;99.90
47168;DHT22;32931;47.778;17.806;2023-04-09T03:29:18;6.90;99.90
47168;DHT22;32931;47.778;17.806;2023-04-09T03:31:44;7.00;99.90
47168;DHT22;32931;47.778;17.806;2023-04-09T03:34:10;7.00;99.90
47168;DHT22;32931;47.778;17.806;2023-04-09T03:36:36;6.90;99.90
47168;DHT22;32931;47.778;17.806;2023-04-09T03:39:03;6.90;99.90
47168;DHT22;32931;47.778;17.806;2023-04-09T03:41:29;6.90;99.90
47168;DHT22;32931;47.778;17.806;2023-04-09T03:43:55;6.90;99.90
47168;DHT22;32931;47.778;17.806;2023-04-09T03:46:21;6.90;99.90
47168;DHT22;32931;47.778;17.806;2023-04-09T03:48:48;6.90;99.90
47168;DHT22;32931;47.778;17.806;2023-04-09T03:51:14;6.90;99.90
47168;DHT22;32931;47.778;17.806;2023-04-09T03:53:41;6.90;99.90
47168;DHT22;32931;47.778;17.806;2023-04-09T03:56:08;6.90;99.90
47168;DHT22;32931;47.778;17.806;2023-04-09T03:58:34;7.00;99.90
47168;DHT22;32931;47.778;17.806;2023-04-09T04:01:01;7.00;99.90
47168;DHT22;32931;47.778;17.806;2023-04-09T04:03:27;7.00;99.90
47168;DHT22;32931;47.778;17.806;2023-04-09T04:05:53;7.00;99.90
47168;DHT22;32931;47.778;17.806;2023-04-09T04:08:19;7.00;99.90
47168;DHT22;32931;47.778;17.806;2023-04-09T04:10:45;7.00;99.90
47168;DHT22;32931;47.778;17.806;2023-04-09T04:13:11;7.00;99.90
47168;DHT22;32931;47.778;17.806;2023-04-09T04:15:40;7.00;99.90
47168;DHT22;32931;47.778;17.806;2023-04-09T04:18:07;7.00;99.90
47168;DHT22;32931;47.778;17.806;2023-04-09T04:20:35;7.00;99.90
47168;DHT22;32931;47.778;17.806;2023-04-09T04:23:02;7.00;99.90
47168;DHT22;32931;47.778;17.806;2023-04-09T04:25:28;7.00;99.90
47168;DHT22;32931;47.778;17.806;2023-04-09T04:27:54;7.00;99.90
47168;DHT22;32931;47.778;17.806;2023-04-09T04:30:21;7.00;99.90
47168;DHT22;32931;47.778;17.806;2023-04-09T04:32:48;7.00;99.90
47168;DHT22;32931;47.778;17.806;2023-04-09T04:35:14;7.10;99.90
47168;DHT22;32931;47.778;17.806;2023-04-09T04:37:41;7.10;99.90
47168;DHT22;32931;47.778;17.806;2023-04-09T04:40:07;7.10;99.90
47168;DHT22;32931;47.778;17.806;2023-04-09T04:42:34;7.10;99.90
47168;DHT22;32931;47.778;17.806;2023-04-09T04:45:00;7.10;99.90
47168;DHT22;32931;47.778;17.806;2023-04-09T04:47:26;7.10;99.90
47168;DHT22;32931;47.778;17.806;2023-04-09T04:49:53;7.10;99.90
47168;DHT22;32931;47.778;17.806;2023-04-09T04:52:19;7.00;99.90
47168;DHT22;32931;47.778;17.806;2023-04-09T04:54:45;7.10;99.90
47168;DHT22;32931;47.778;17.806;2023-04-09T04:57:11;7.10;99.90
47168;DHT22;32931;47.778;17.806;2023-04-09T04:59:39;7.10;99.90
47168;DHT22;32931;47.778;17.806;2023-04-09T05:02:08;7.10;99.90
47168;DHT22;32931;47.778;17.806;2023-04-09T05:04:34;7.20;99.90
47168;DHT22;32931;47.778;17.806;2023-04-09T05:07:01;7.20;99.90
47168;DHT22;32931;47.778;17.806;2023-04-09T05:09:27;7.30;99.90
47168;DHT22;32931;47.778;17.806;2023-04-09T05:11:53;7.40;99.90
47168;DHT22;32931;47.778;17.806;2023-04-09T05:14:19;7.40;99.90
47168;DHT22;32931;47.778;17.806;2023-04-09T05:16:50;7.40;99.90
47168;DHT22;32931;47.778;17.806;2023-04-09T05:19:17;7.40;99.90
47168;DHT22;32931;47.778;17.806;2023-04-09T05:21:43;7.50;99.90
47168;DHT22;32931;47.778;17.806;2023-04-09T05:24:09;7.50;99.90
47168;DHT22;32931;47.778;17.806;2023-04-09T05:26:35;7.50;99.90
47168;DHT22;32931;47.778;17.806;2023-04-09T05:29:01;7.50;99.90
47168;DHT22;32931;47.778;17.806;2023-04-09T05:31:27;7.50;99.90
47168;DHT22;32931;47.778;17.806;2023-04-09T05:33:54;7.50;99.90
47168;DHT22;32931;47.778;17.806;2023-04-09T05:36:20;7.50;99.90
47168;DHT22;32931;47.778;17.806;2023-04-09T05:38:46;7.50;99.90
47168;DHT22;32931;47.778;17.806;2023-04-09T05:41:13;7.60;99.90
47168;DHT22;32931;47.778;17.806;2023-04-09T05:43:39;7.60;99.90
47168;DHT22;32931;47.778;17.806;2023-04-09T05:46:05;7.60;99.90
47168;DHT22;32931;47.778;17.806;2023-04-09T05:48:34;7.60;99.90
47168;DHT22;32931;47.778;17.806;2023-04-09T05:51:01;7.70;99.90
47168;DHT22;32931;47.778;17.806;2023-04-09T05:53:27;7.70;99.90
47168;DHT22;32931;47.778;17.806;2023-04-09T05:55:54;7.70;99.90
47168;DHT22;32931;47.778;17.806;2023-04-09T05:58:20;7.60;99.90
47168;DHT22;32931;47.778;17.806;2023-04-09T06:00:46;7.70;99.90
47168;DHT22;32931;47.778;17.806;2023-04-09T06:03:12;7.80;99.90
47168;DHT22;32931;47.778;17.806;2023-04-09T06:05:38;7.80;99.90
47168;DHT22;32931;47.778;17.806;2023-04-09T06:08:05;7.80;99.90
47168;DHT22;32931;47.778;17.806;2023-04-09T06:10:32;7.90;99.90
47168;DHT22;32931;47.778;17.806;2023-04-09T06:12:58;7.90;99.90
47168;DHT22;32931;47.778;17.806;2023-04-09T06:15:24;7.90;99.90
47168;DHT22;32931;47.778;17.806;2023-04-09T06:17:50;8.00;99.90
47168;DHT22;32931;47.778;17.806;2023-04-09T06:20:16;8.00;99.90
47168;DHT22;32931;47.778;17.806;2023-04-09T06:22:42;8.10;99.90
47168;DHT22;32931;47.778;17.806;2023-04-09T06:25:09;8.10;99.90
47168;DHT22;32931;47.778;17.806;2023-04-09T06:27:35;8.10;99.90
47168;DHT22;32931;47.778;17.806;2023-04-09T06:30:01;8.20;99.90
47168;DHT22;32931;47.778;17.806;2023-04-09T06:32:27;8.20;99.90
47168;DHT22;32931;47.778;17.806;2023-04-09T06:34:53;8.30;99.90
47168;DHT22;32931;47.778;17.806;2023-04-09T06:37:20;8.30;99.90
47168;DHT22;32931;47.778;17.806;2023-04-09T06:39:46;8.30;99.90
47168;DHT22;32931;47.778;17.806;2023-04-09T06:42:12;8.40;99.90
47168;DHT22;32931;47.778;17.806;2023-04-09T06:44:38;8.40;99.90
47168;DHT22;32931;47.778;17.806;2023-04-09T06:47:04;8.30;99.90
47168;DHT22;32931;47.778;17.806;2023-04-09T06:49:31;8.30;99.90
47168;DHT22;32931;47.778;17.806;2023-04-09T06:51:57;8.40;99.90
47168;DHT22;32931;47.778;17.806;2023-04-09T06:54:23;8.40;99.90
47168;DHT22;32931;47.778;17.806;2023-04-09T06:56:49;8.50;99.90
47168;DHT22;32931;47.778;17.806;2023-04-09T06:59:15;8.50;99.90
47168;DHT22;32931;47.778;17.806;2023-04-09T07:01:41;8.50;99.90
47168;DHT22;32931;47.778;17.806;2023-04-09T07:04:08;8.60;99.90
47168;DHT22;32931;47.778;17.806;2023-04-09T07:06:34;8.80;99.90
47168;DHT22;32931;47.778;17.806;2023-04-09T07:09:00;8.90;99.90
47168;DHT22;32931;47.778;17.806;2023-04-09T07:11:26;9.00;99.90
47168;DHT22;32931;47.778;17.806;2023-04-09T07:13:52;9.20;99.90
47168;DHT22;32931;47.778;17.806;2023-04-09T07:16:18;9.30;99.90
47168;DHT22;32931;47.778;17.806;2023-04-09T07:18:45;9.40;99.90
47168;DHT22;32931;47.778;17.806;2023-04-09T07:21:11;9.50;99.90
47168;DHT22;32931;47.778;17.806;2023-04-09T07:23:38;9.60;99.90
47168;DHT22;32931;47.778;17.806;2023-04-09T07:26:04;9.60;99.90
47168;DHT22;32931;47.778;17.806;2023-04-09T07:28:31;9.70;99.90
47168;DHT22;32931;47.778;17.806;2023-04-09T07:30:59;9.70;99.90
47168;DHT22;32931;47.778;17.806;2023-04-09T07:33:26;9.80;99.90
47168;DHT22;32931;47.778;17.806;2023-04-09T07:35:52;9.90;99.90
47168;DHT22;32931;47.778;17.806;2023-04-09T07:38:18;9.90;99.90
47168;DHT22;32931;47.778;17.806;2023-04-09T07:40:44;10.00;99.90
47168;DHT22;32931;47.778;17.806;2023-04-09T07:43:10;10.00;99.90
47168;DHT22;32931;47.778;17.806;2023-04-09T07:45:37;10.10;99.90
47168;DHT22;32931;47.778;17.806;2023-04-09T07:48:03;10.10;99.90
47168;DHT22;32931;47.778;17.806;2023-04-09T07:50:29;10.10;99.90
47168;DHT22;32931;47.778;17.806;2023-04-09T07:52:55;10.20;99.90
47168;DHT22;32931;47.778;17.806;2023-04-09T07:55:21;10.20;99.90
47168;DHT22;32931;47.778;17.806;2023-04-09T07:57:48;10.30;99.90
47168;DHT22;32931;47.778;17.806;2023-04-09T08:00:14;10.30;99.90
47168;DHT22;32931;47.778;17.806;2023-04-09T08:02:40;10.30;99.90
47168;DHT22;32931;47.778;17.806;2023-04-09T08:05:07;10.40;99.90
47168;DHT22;32931;47.778;17.806;2023-04-09T08:07:33;10.40;99.90
47168;DHT22;32931;47.778;17.806;2023-04-09T08:10:00;10.40;99.90
47168;DHT22;32931;47.778;17.806;2023-04-09T08:12:26;10.40;99.90
47168;DHT22;32931;47.778;17.806;2023-04-09T08:14:52;10.50;99.90
47168;DHT22;32931;47.778;17.806;2023-04-09T08:17:18;10.40;99.90
47168;DHT22;32931;47.778;17.806;2023-04-09T08:19:45;10.40;99.90
47168;DHT22;32931;47.778;17.806;2023-04-09T08:22:11;10.40;99.90
47168;DHT22;32931;47.778;17.806;2023-04-09T08:24:37;10.40;99.90
47168;DHT22;32931;47.778;17.806;2023-04-09T08:27:05;10.40;99.90
47168;DHT22;32931;47.778;17.806;2023-04-09T08:29:31;10.40;99.90
47168;DHT22;32931;47.778;17.806;2023-04-09T08:31:57;10.40;99.90
47168;DHT22;32931;47.778;17.806;2023-04-09T08:34:23;10.50;99.90
47168;DHT22;32931;47.778;17.806;2023-04-09T08:36:49;10.50;99.90
47168;DHT22;32931;47.778;17.806;2023-04-09T08:39:16;10.50;99.90
47168;DHT22;32931;47.778;17.806;2023-04-09T08:41:45;10.60;99.90
47168;DHT22;32931;47.778;17.806;2023-04-09T08:44:13;10.60;99.90
47168;DHT22;32931;47.778;17.806;2023-04-09T08:46:39;10.60;99.90
47168;DHT22;32931;47.778;17.806;2023-04-09T08:49:07;10.60;99.90
47168;DHT22;32931;47.778;17.806;2023-04-09T08:51:34;10.70;99.90
47168;DHT22;32931;47.778;17.806;2023-04-09T08:54:01;10.70;99.90
47168;DHT22;32931;47.778;17.806;2023-04-09T08:56:27;10.70;99.90
47168;DHT22;32931;47.778;17.806;2023-04-09T08:58:54;10.80;99.90
47168;DHT22;32931;47.778;17.806;2023-04-09T09:01:25;10.80;99.90
47168;DHT22;32931;47.778;17.806;2023-04-09T09:04:06;10.90;99.90
47168;DHT22;32931;47.778;17.806;2023-04-09T09:06:34;11.00;99.90
47168;DHT22;32931;47.778;17.806;2023-04-09T09:09:14;11.00;99.90
47168;DHT22;32931;47.778;17.806;2023-04-09T09:11:41;11.10;99.90
47168;DHT22;32931;47.778;17.806;2023-04-09T09:14:15;11.20;99.90
47168;DHT22;32931;47.778;17.806;2023-04-09T09:17:01;11.30;99.90
47168;DHT22;32931;47.778;17.806;2023-04-09T09:19:32;11.40;99.90
47168;DHT22;32931;47.778;17.806;2023-04-09T09:22:01;11.40;99.90
47168;DHT22;32931;47.778;17.806;2023-04-09T09:24:28;11.40;99.90
47168;DHT22;32931;47.778;17.806;2023-04-09T09:26:54;11.50;99.90
47168;DHT22;32931;47.778;17.806;2023-04-09T09:29:22;11.60;99.90
47168;DHT22;32931;47.778;17.806;2023-04-09T09:31:49;11.60;99.90
47168;DHT22;32931;47.778;17.806;2023-04-09T09:34:17;11.60;99.90
47168;DHT22;32931;47.778;17.806;2023-04-09T09:36:45;11.70;99.90
47168;DHT22;32931;47.778;17.806;2023-04-09T09:39:12;11.70;99.90
47168;DHT22;32931;47.778;17.806;2023-04-09T09:41:39;11.80;99.90
47168;DHT22;32931;47.778;17.806;2023-04-09T09:44:07;11.80;99.90
47168;DHT22;32931;47.778;17.806;2023-04-09T09:46:35;11.90;99.90
47168;DHT22;32931;47.778;17.806;2023-04-09T09:49:04;11.90;99.90
47168;DHT22;32931;47.778;17.806;2023-04-09T09:51:31;11.90;99.90
47168;DHT22;32931;47.778;17.806;2023-04-09T09:53:59;11.90;99.90
47168;DHT22;32931;47.778;17.806;2023-04-09T09:56:34;11.90;99.90
47168;DHT22;32931;47.778;17.806;2023-04-09T09:59:15;12.00;99.90
47168;DHT22;32931;47.778;17.806;2023-04-09T10:01:43;12.00;99.90
47168;DHT22;32931;47.778;17.806;2023-04-09T10:04:14;12.00;99.90
47168;DHT22;32931;47.778;17.806;2023-04-09T10:06:44;12.00;99.90
47168;DHT22;32931;47.778;17.806;2023-04-09T10:09:12;12.00;99.90
47168;DHT22;32931;47.778;17.806;2023-04-09T10:11:39;12.00;99.90
47168;DHT22;32931;47.778;17.806;2023-04-09T10:14:08;12.00;99.90
47168;DHT22;32931;47.778;17.806;2023-04-09T10:16:35;12.00;99.90
47168;DHT22;32931;47.778;17.806;2023-04-09T10:19:01;12.00;99.90
47168;DHT22;32931;47.778;17.806;2023-04-09T10:21:42;12.00;99.90
47168;DHT22;32931;47.778;17.806;2023-04-09T10:24:11;12.00;99.90
47168;DHT22;32931;47.778;17.806;2023-04-09T10:26:41;12.10;99.90
47168;DHT22;32931;47.778;17.806;2023-04-09T10:29:08;12.20;99.90
47168;DHT22;32931;47.778;17.806;2023-04-09T10:34:16;12.20;99.90
47168;DHT22;32931;47.778;17.806;2023-04-09T10:36:52;12.20;99.90
47168;DHT22;32931;47.778;17.806;2023-04-09T10:39:24;12.20;99.90
47168;DHT22;32931;47.778;17.806;2023-04-09T10:41:51;12.20;99.90
47168;DHT22;32931;47.778;17.806;2023-04-09T10:46:46;12.20;99.90
47168;DHT22;32931;47.778;17.806;2023-04-09T10:49:20;12.20;99.90
47168;DHT22;32931;47.778;17.806;2023-04-09T10:52:01;12.10;99.90
47168;DHT22;32931;47.778;17.806;2023-04-09T10:59:33;12.30;99.90
47168;DHT22;32931;47.778;17.806;2023-04-09T11:02:00;12.40;99.90
47168;DHT22;32931;47.778;17.806;2023-04-09T11:07:24;12.50;99.90
47168;DHT22;32931;47.778;17.806;2023-04-09T11:09:50;12.60;99.90
47168;DHT22;32931;47.778;17.806;2023-04-09T11:12:17;12.60;99.90
47168;DHT22;32931;47.778;17.806;2023-04-09T11:14:44;12.60;99.90
47168;DHT22;32931;47.778;17.806;2023-04-09T11:17:11;12.60;99.90
47168;DHT22;32931;47.778;17.806;2023-04-09T11:19:38;12.80;99.90
47168;DHT22;32931;47.778;17.806;2023-04-09T11:22:04;13.00;99.90
47168;DHT22;32931;47.778;17.806;2023-04-09T11:24:45;13.20;99.90
47168;DHT22;32931;47.778;17.806;2023-04-09T11:27:12;13.40;99.90
47168;DHT22;32931;47.778;17.806;2023-04-09T11:29:38;13.40;99.90
47168;DHT22;32931;47.778;17.806;2023-04-09T11:32:04;13.50;99.90
47168;DHT22;32931;47.778;17.806;2023-04-09T11:34:31;13.50;99.90
47168;DHT22;32931;47.778;17.806;2023-04-09T11:36:58;13.50;99.90
47168;DHT22;32931;47.778;17.806;2023-04-09T11:39:25;13.40;99.90
47168;DHT22;32931;47.778;17.806;2023-04-09T11:41:51;13.40;99.90
47168;DHT22;32931;47.778;17.806;2023-04-09T11:44:19;13.30;99.90
47168;DHT22;32931;47.778;17.806;2023-04-09T11:46:46;13.30;99.90
47168;DHT22;32931;47.778;17.806;2023-04-09T11:49:14;13.50;99.90
47168;DHT22;32931;47.778;17.806;2023-04-09T11:51:40;13.60;99.90
47168;DHT22;32931;47.778;17.806;2023-04-09T11:54:07;13.60;99.90
47168;DHT22;32931;47.778;17.806;2023-04-09T11:56:34;13.70;99.90
47168;DHT22;32931;47.778;17.806;2023-04-09T11:59:02;13.80;99.90
47168;DHT22;32931;47.778;17.806;2023-04-09T12:01:32;13.80;99.90
47168;DHT22;32931;47.778;17.806;2023-04-09T12:03:59;13.80;99.90
47168;DHT22;32931;47.778;17.806;2023-04-09T12:06:26;13.80;99.90
47168;DHT22;32931;47.778;17.806;2023-04-09T12:08:58;13.80;99.90
47168;DHT22;32931;47.778;17.806;2023-04-09T12:11:29;13.80;99.90
47168;DHT22;32931;47.778;17.806;2023-04-09T12:14:03;13.80;99.90
47168;DHT22;32931;47.778;17.806;2023-04-09T12:16:31;13.80;99.80
47168;DHT22;32931;47.778;17.806;2023-04-09T12:19:07;13.70;99.90
47168;DHT22;32931;47.778;17.806;2023-04-09T12:21:52;13.60;99.70
47168;DHT22;32931;47.778;17.806;2023-04-09T12:24:21;13.70;99.90
47168;DHT22;32931;47.778;17.806;2023-04-09T12:26:48;13.60;99.90
47168;DHT22;32931;47.778;17.806;2023-04-09T12:29:19;13.60;99.90
47168;DHT22;32931;47.778;17.806;2023-04-09T12:31:46;13.60;99.90
47168;DHT22;32931;47.778;17.806;2023-04-09T12:34:13;13.60;99.90
47168;DHT22;32931;47.778;17.806;2023-04-09T12:36:39;13.70;99.90
47168;DHT22;32931;47.778;17.806;2023-04-09T12:39:09;13.70;99.60
47168;DHT22;32931;47.778;17.806;2023-04-09T12:41:36;13.80;99.50
47168;DHT22;32931;47.778;17.806;2023-04-09T12:44:02;13.90;99.10
47168;DHT22;32931;47.778;17.806;2023-04-09T12:46:29;13.90;99.40
47168;DHT22;32931;47.778;17.806;2023-04-09T12:48:57;14.00;99.50
47168;DHT22;32931;47.778;17.806;2023-04-09T12:51:23;14.20;99.90
47168;DHT22;32931;47.778;17.806;2023-04-09T12:53:50;14.40;99.90
47168;DHT22;32931;47.778;17.806;2023-04-09T12:56:16;14.70;99.90
47168;DHT22;32931;47.778;17.806;2023-04-09T12:58:42;14.90;99.90
47168;DHT22;32931;47.778;17.806;2023-04-09T13:01:09;15.00;99.20
47168;DHT22;32931;47.778;17.806;2023-04-09T13:03:35;15.20;99.80
47168;DHT22;32931;47.778;17.806;2023-04-09T13:06:01;15.40;99.10
47168;DHT22;32931;47.778;17.806;2023-04-09T13:08:27;15.50;98.40
47168;DHT22;32931;47.778;17.806;2023-04-09T13:10:53;15.60;97.80
47168;DHT22;32931;47.778;17.806;2023-04-09T13:13:20;15.60;97.20
47168;DHT22;32931;47.778;17.806;2023-04-09T13:15:46;15.50;96.10
47168;DHT22;32931;47.778;17.806;2023-04-09T13:18:12;15.40;96.00
47168;DHT22;32931;47.778;17.806;2023-04-09T13:20:38;15.30;95.90
47168;DHT22;32931;47.778;17.806;2023-04-09T13:23:05;15.30;95.90
47168;DHT22;32931;47.778;17.806;2023-04-09T13:25:31;15.40;95.70
47168;DHT22;32931;47.778;17.806;2023-04-09T13:27:57;15.50;95.70
47168;DHT22;32931;47.778;17.806;2023-04-09T13:30:23;15.90;95.80
47168;DHT22;32931;47.778;17.806;2023-04-09T13:32:50;16.10;94.30
47168;DHT22;32931;47.778;17.806;2023-04-09T13:35:16;16.60;94.40
47168;DHT22;32931;47.778;17.806;2023-04-09T13:37:43;17.10;94.30
47168;DHT22;32931;47.778;17.806;2023-04-09T13:40:10;17.70;94.20
47168;DHT22;32931;47.778;17.806;2023-04-09T13:42:36;18.20;93.50
47168;DHT22;32931;47.778;17.806;2023-04-09T13:45:03;18.40;92.50
47168;DHT22;32931;47.778;17.806;2023-04-09T13:47:29;18.70;92.30
47168;DHT22;32931;47.778;17.806;2023-04-09T13:49:56;18.80;91.30
47168;DHT22;32931;47.778;17.806;2023-04-09T13:52:22;19.00;91.10
47168;DHT22;32931;47.778;17.806;2023-04-09T13:54:48;19.00;90.10
47168;DHT22;32931;47.778;17.806;2023-04-09T13:57:15;19.20;89.00
47168;DHT22;32931;47.778;17.806;2023-04-09T13:59:41;19.10;86.60
47168;DHT22;32931;47.778;17.806;2023-04-09T14:02:08;19.10;86.60
47168;DHT22;32931;47.778;17.806;2023-04-09T14:04:35;19.10;85.00
47168;DHT22;32931;47.778;17.806;2023-04-09T14:07:01;19.30;85.30
47168;DHT22;32931;47.778;17.806;2023-04-09T14:09:27;19.40;84.80
47168;DHT22;32931;47.778;17.806;2023-04-09T14:11:53;19.50;82.10
47168;DHT22;32931;47.778;17.806;2023-04-09T14:14:20;19.60;81.50
47168;DHT22;32931;47.778;17.806;2023-04-09T14:16:47;19.50;80.00
47168;DHT22;32931;47.778;17.806;2023-04-09T14:19:13;19.40;79.60
47168;DHT22;32931;47.778;17.806;2023-04-09T14:21:39;19.40;80.20
47168;DHT22;32931;47.778;17.806;2023-04-09T14:24:06;19.70;81.50
47168;DHT22;32931;47.778;17.806;2023-04-09T14:26:32;20.00;82.00
47168;DHT22;32931;47.778;17.806;2023-04-09T14:28:58;20.40;81.10
47168;DHT22;32931;47.778;17.806;2023-04-09T14:31:25;20.90;81.30
47168;DHT22;32931;47.778;17.806;2023-04-09T14:33:51;21.50;79.40
47168;DHT22;32931;47.778;17.806;2023-04-09T14:36:17;22.20;78.30
47168;DHT22;32931;47.778;17.806;2023-04-09T14:38:43;22.30;75.60
47168;DHT22;32931;47.778;17.806;2023-04-09T14:41:09;22.20;71.70
47168;DHT22;32931;47.778;17.806;2023-04-09T14:43:35;21.70;70.70
47168;DHT22;32931;47.778;17.806;2023-04-09T14:46:02;21.30;70.40
47168;DHT22;32931;47.778;17.806;2023-04-09T14:48:28;20.90;70.60
47168;DHT22;32931;47.778;17.806;2023-04-09T14:50:55;20.30;68.00
47168;DHT22;32931;47.778;17.806;2023-04-09T14:53:22;19.80;68.00
47168;DHT22;32931;47.778;17.806;2023-04-09T14:55:48;19.20;68.40
47168;DHT22;32931;47.778;17.806;2023-04-09T14:58:14;18.70;70.40
47168;DHT22;32931;47.778;17.806;2023-04-09T15:00:40;18.40;71.10
47168;DHT22;32931;47.778;17.806;2023-04-09T15:03:08;18.10;71.10
47168;DHT22;32931;47.778;17.806;2023-04-09T15:05:35;17.70;71.20
47168;DHT22;32931;47.778;17.806;2023-04-09T15:08:01;17.50;72.50
47168;DHT22;32931;47.778;17.806;2023-04-09T15:10:27;17.40;74.30
47168;DHT22;32931;47.778;17.806;2023-04-09T15:12:53;17.20;75.50
47168;DHT22;32931;47.778;17.806;2023-04-09T15:15:20;17.10;74.60
47168;DHT22;32931;47.778;17.806;2023-04-09T15:17:46;16.80;75.70
47168;DHT22;32931;47.778;17.806;2023-04-09T15:20:12;16.70;77.20
47168;DHT22;32931;47.778;17.806;2023-04-09T15:22:39;16.50;78.10
47168;DHT22;32931;47.778;17.806;2023-04-09T15:25:05;16.40;78.40
47168;DHT22;32931;47.778;17.806;2023-04-09T15:27:31;16.30;79.40
47168;DHT22;32931;47.778;17.806;2023-04-09T15:29:58;16.20;79.30
47168;DHT22;32931;47.778;17.806;2023-04-09T15:32:24;16.00;79.60
47168;DHT22;32931;47.778;17.806;2023-04-09T15:34:50;15.90;81.20
47168;DHT22;32931;47.778;17.806;2023-04-09T15:37:16;15.80;81.40
47168;DHT22;32931;47.778;17.806;2023-04-09T15:39:43;15.70;81.50
47168;DHT22;32931;47.778;17.806;2023-04-09T15:42:09;15.60;82.30
47168;DHT22;32931;47.778;17.806;2023-04-09T15:44:35;15.60;82.00
47168;DHT22;32931;47.778;17.806;2023-04-09T15:47:01;15.50;82.20
47168;DHT22;32931;47.778;17.806;2023-04-09T15:49:27;15.40;82.90